createdAt,value
2022-09-02T00:01:28.748Z,91.20
2022-09-02T00:04:02.012Z,91.20
2022-09-02T00:06:30.184Z,91.20
2022-09-02T00:08:57.384Z,91.30
2022-09-02T00:11:28.526Z,91.30
2022-09-02T00:13:57.249Z,91.30
2022-09-02T00:16:25.560Z,91.40
2022-09-02T00:18:53.659Z,91.40
2022-09-02T00:21:21.587Z,91.40
2022-09-02T00:23:48.692Z,91.50
2022-09-02T00:26:15.746Z,91.50
2022-09-02T00:28:48.845Z,91.60
2022-09-02T00:31:17.078Z,91.70
2022-09-02T00:33:44.590Z,91.80
2022-09-02T00:36:11.810Z,91.90
2022-09-02T00:38:40.020Z,92.00
2022-09-02T00:41:09.640Z,92.10
2022-09-02T00:43:52.368Z,92.20
2022-09-02T00:46:22.521Z,92.30
2022-09-02T00:49:04.351Z,92.40
2022-09-02T00:51:39.212Z,92.50
2022-09-02T00:54:07.576Z,92.60
2022-09-02T00:56:38.312Z,92.70
2022-09-02T00:59:05.475Z,92.70
2022-09-02T01:01:32.570Z,92.90
2022-09-02T01:03:59.783Z,93.00
2022-09-02T01:06:32.792Z,93.10
2022-09-02T01:09:08.644Z,93.10
2022-09-02T01:11:55.301Z,93.20
2022-09-02T01:14:23.122Z,93.30
2022-09-02T01:16:53.699Z,93.40
2022-09-02T01:19:24.282Z,93.50
2022-09-02T01:21:56.239Z,93.60
2022-09-02T01:24:27.949Z,93.70
2022-09-02T01:26:57.169Z,93.80
2022-09-02T01:29:26.266Z,93.80
2022-09-02T01:31:53.857Z,94.00
2022-09-02T01:34:21.205Z,94.00
2022-09-02T01:36:48.131Z,94.10
2022-09-02T01:39:15.204Z,94.20
2022-09-02T01:41:42.519Z,94.20
2022-09-02T01:44:10.611Z,94.20
2022-09-02T01:46:37.942Z,94.30
2022-09-02T01:49:05.803Z,94.40
2022-09-02T01:51:33.402Z,94.50
2022-09-02T01:54:00.364Z,94.50
2022-09-02T01:56:27.315Z,94.60
2022-09-02T01:58:54.499Z,94.70
2022-09-02T02:01:21.756Z,94.80
2022-09-02T02:03:49.643Z,94.90
2022-09-02T02:06:18.199Z,95.00
2022-09-02T02:08:45.167Z,95.10
2022-09-02T02:11:18.826Z,95.20
2022-09-02T02:13:45.763Z,95.30
2022-09-02T02:16:13.895Z,95.20
2022-09-02T02:18:41.191Z,95.30
2022-09-02T02:21:08.197Z,95.30
2022-09-02T02:23:35.230Z,95.40
2022-09-02T02:26:02.161Z,95.40
2022-09-02T02:28:30.380Z,95.50
2022-09-02T02:30:57.947Z,95.60
2022-09-02T02:33:30.439Z,95.70
2022-09-02T02:36:04.851Z,95.80
2022-09-02T02:38:33.195Z,95.80
2022-09-02T02:41:02.130Z,95.90
2022-09-02T02:43:29.032Z,95.90
2022-09-02T02:45:55.962Z,96.00
2022-09-02T02:48:23.087Z,96.10
2022-09-02T02:50:50.052Z,96.10
2022-09-02T02:53:17.642Z,96.20
2022-09-02T02:55:45.588Z,96.30
2022-09-02T02:58:17.658Z,96.30
2022-09-02T03:00:45.672Z,96.30
2022-09-02T03:03:14.023Z,96.40
2022-09-02T03:05:41.608Z,96.50
2022-09-02T03:08:10.322Z,96.50
2022-09-02T03:10:38.745Z,96.50
2022-09-02T03:13:06.019Z,96.60
2022-09-02T03:15:33.356Z,96.70
2022-09-02T03:18:00.311Z,96.80
2022-09-02T03:20:27.282Z,96.90
2022-09-02T03:22:56.891Z,96.90
2022-09-02T03:25:23.939Z,97.10
2022-09-02T03:27:52.536Z,97.20
2022-09-02T03:30:26.083Z,97.20
2022-09-02T03:32:53.932Z,97.30
2022-09-02T03:35:22.545Z,97.40
2022-09-02T03:37:50.828Z,97.50
2022-09-02T03:40:22.114Z,97.60
2022-09-02T03:42:49.501Z,97.60
2022-09-02T03:45:16.933Z,97.80
2022-09-02T03:47:51.233Z,97.70
2022-09-02T03:50:20.266Z,97.70
2022-09-02T03:52:47.382Z,97.80
2022-09-02T03:55:14.936Z,97.90
2022-09-02T03:57:41.938Z,98.00
2022-09-02T04:00:11.323Z,98.00
2022-09-02T04:02:38.648Z,98.00
2022-09-02T04:05:06.287Z,98.00
2022-09-02T04:07:41.064Z,98.10
2022-09-02T04:10:10.166Z,98.20
2022-09-02T04:12:38.748Z,98.20
2022-09-02T04:15:07.906Z,98.30
2022-09-02T04:17:40.022Z,98.30
2022-09-02T04:20:09.603Z,98.40
2022-09-02T04:22:37.214Z,98.40
2022-09-02T04:25:06.586Z,98.60
2022-09-02T04:27:35.156Z,98.70
2022-09-02T04:30:02.280Z,98.80
2022-09-02T04:32:29.243Z,98.80
2022-09-02T04:34:57.308Z,98.70
2022-09-02T04:37:24.295Z,98.60
2022-09-02T04:39:52.719Z,98.60
2022-09-02T04:42:19.834Z,98.60
2022-09-02T04:44:46.922Z,98.50
2022-09-02T04:47:13.881Z,98.40
2022-09-02T04:49:42.143Z,98.30
2022-09-02T04:52:10.598Z,98.20
2022-09-02T04:54:37.653Z,98.20
2022-09-02T04:57:04.880Z,98.20
2022-09-02T04:59:36.461Z,98.30
2022-09-02T05:02:05.038Z,98.30
2022-09-02T05:04:33.385Z,98.40
2022-09-02T05:07:03.080Z,98.40
2022-09-02T05:09:31.076Z,98.50
2022-09-02T05:11:58.012Z,98.60
2022-09-02T05:14:25.875Z,98.80
2022-09-02T05:16:54.044Z,98.90
2022-09-02T05:19:23.485Z,99.00
2022-09-02T05:21:53.436Z,99.10
2022-09-02T05:24:24.507Z,99.20
2022-09-02T05:26:53.347Z,99.20
2022-09-02T05:29:20.779Z,99.30
2022-09-02T05:31:48.280Z,99.30
2022-09-02T05:34:16.144Z,99.20
2022-09-02T05:36:43.373Z,99.10
2022-09-02T05:39:10.532Z,99.00
2022-09-02T05:41:37.593Z,98.80
2022-09-02T05:44:05.909Z,98.70
2022-09-02T05:46:33.577Z,98.60
2022-09-02T05:49:06.559Z,98.40
2022-09-02T05:51:45.996Z,98.30
2022-09-02T05:54:24.512Z,98.20
2022-09-02T05:56:54.396Z,98.10
2022-09-02T05:59:22.596Z,97.90
2022-09-02T06:01:50.284Z,97.90
2022-09-02T06:04:17.375Z,97.80
2022-09-02T06:06:44.274Z,97.70
2022-09-02T06:09:14.714Z,97.60
2022-09-02T06:11:46.619Z,97.50
2022-09-02T06:14:14.977Z,97.50
2022-09-02T06:16:42.879Z,97.40
2022-09-02T06:19:10.139Z,97.30
2022-09-02T06:21:39.020Z,97.20
2022-09-02T06:24:07.769Z,97.10
2022-09-02T06:26:35.943Z,96.90
2022-09-02T06:29:04.548Z,96.90
2022-09-02T06:31:34.484Z,96.60
2022-09-02T06:34:02.031Z,96.50
2022-09-02T06:36:31.310Z,96.40
2022-09-02T06:39:00.215Z,96.30
2022-09-02T06:41:30.464Z,96.20
2022-09-02T06:44:00.009Z,96.10
2022-09-02T06:46:33.600Z,96.10
2022-09-02T06:49:01.068Z,95.90
2022-09-02T06:51:31.915Z,95.80
2022-09-02T06:53:59.486Z,95.80
2022-09-02T06:56:28.981Z,95.80
2022-09-02T06:58:57.101Z,95.70
2022-09-02T07:01:27.099Z,95.60
2022-09-02T07:04:13.891Z,95.20
2022-09-02T07:06:48.217Z,95.20
2022-09-02T07:09:18.637Z,95.00
2022-09-02T07:11:49.318Z,95.00
2022-09-02T07:14:18.404Z,94.80
2022-09-02T07:16:51.034Z,94.60
2022-09-02T07:19:20.774Z,94.20
2022-09-02T07:21:49.515Z,93.90
2022-09-02T07:24:17.477Z,93.60
2022-09-02T07:26:45.527Z,93.40
2022-09-02T07:29:13.008Z,93.10
2022-09-02T07:31:43.158Z,92.90
2022-09-02T07:34:10.869Z,92.80
2022-09-02T07:36:38.260Z,92.60
2022-09-02T07:39:07.998Z,92.40
2022-09-02T07:41:36.536Z,92.00
2022-09-02T07:44:05.383Z,92.10
2022-09-02T07:46:32.892Z,92.00
2022-09-02T07:49:09.282Z,91.70
2022-09-02T07:51:39.606Z,91.60
2022-09-02T07:54:08.756Z,91.20
2022-09-02T07:56:35.738Z,91.00
2022-09-02T07:59:03.311Z,91.00
2022-09-02T08:01:31.028Z,90.80
2022-09-02T08:04:00.431Z,90.50
2022-09-02T08:06:34.935Z,90.20
2022-09-02T08:09:05.034Z,90.00
2022-09-02T08:11:35.093Z,89.40
2022-09-02T08:14:03.184Z,88.80
2022-09-02T08:16:30.200Z,88.50
2022-09-02T08:18:58.489Z,88.10
2022-09-02T08:21:28.186Z,87.70
2022-09-02T08:23:55.478Z,87.00
2022-09-02T08:26:23.006Z,86.40
2022-09-02T08:28:50.421Z,86.40
2022-09-02T08:31:17.400Z,86.30
2022-09-02T08:33:44.769Z,86.00
2022-09-02T08:36:15.060Z,85.70
2022-09-02T08:38:43.210Z,85.70
2022-09-02T08:41:25.248Z,85.20
2022-09-02T08:43:55.490Z,84.70
2022-09-02T08:46:26.579Z,84.20
2022-09-02T08:49:00.691Z,83.70
2022-09-02T08:51:37.320Z,83.00
2022-09-02T08:54:36.956Z,82.60
2022-09-02T08:57:04.173Z,82.40
2022-09-02T08:59:32.096Z,82.30
2022-09-02T09:02:10.940Z,81.90
2022-09-02T09:05:14.516Z,81.70
2022-09-02T09:08:18.046Z,81.10
2022-09-02T09:11:17.987Z,80.60
2022-09-02T09:13:53.656Z,80.70
2022-09-02T09:16:40.367Z,80.50
2022-09-02T09:19:47.841Z,78.80
2022-09-02T09:22:19.199Z,78.30
2022-09-02T09:24:50.379Z,77.70
2022-09-02T09:27:22.870Z,76.90
2022-09-02T09:29:51.151Z,76.70
2022-09-02T09:32:35.447Z,77.10
2022-09-02T09:35:07.252Z,77.00
2022-09-02T09:37:36.612Z,77.20
2022-09-02T09:40:24.903Z,77.20
2022-09-02T09:43:15.161Z,76.60
2022-09-02T09:45:42.713Z,76.50
2022-09-02T09:48:36.212Z,76.60
2022-09-02T09:51:03.080Z,73.90
2022-09-02T09:53:35.278Z,73.60
2022-09-02T09:56:14.512Z,74.10
2022-09-02T09:58:41.353Z,73.50
2022-09-02T10:01:17.927Z,73.50
2022-09-02T10:04:32.378Z,73.00
2022-09-02T10:06:56.773Z,73.10
2022-09-02T10:09:34.390Z,72.70
2022-09-02T10:12:13.343Z,71.70
2022-09-02T10:14:48.703Z,70.80
2022-09-02T10:17:33.844Z,70.40
2022-09-02T10:20:08.113Z,70.60
2022-09-02T10:22:59.324Z,69.80
2022-09-02T10:25:30.251Z,68.00
2022-09-02T10:28:04.300Z,68.20
2022-09-02T10:30:49.663Z,68.10
2022-09-02T10:33:36.528Z,67.30
2022-09-02T10:36:12.988Z,66.50
2022-09-02T10:38:47.808Z,66.50
2022-09-02T10:44:31.431Z,66.60
2022-09-02T10:47:15.378Z,65.90
2022-09-02T10:49:58.430Z,66.10
2022-09-02T10:52:56.500Z,65.70
2022-09-02T10:55:54.846Z,65.40
2022-09-02T10:58:32.125Z,65.40
2022-09-02T11:00:59.157Z,65.40
2022-09-02T11:03:31.045Z,65.10
2022-09-02T11:06:07.457Z,64.90
2022-09-02T11:08:38.428Z,65.00
2022-09-02T11:11:21.546Z,65.20
2022-09-02T11:14:21.106Z,65.80
2022-09-02T11:17:13.243Z,65.40
2022-09-02T11:19:55.474Z,66.30
2022-09-02T11:22:28.950Z,66.90
2022-09-02T11:24:58.178Z,70.20
2022-09-02T11:27:42.459Z,71.10
2022-09-02T11:30:26.868Z,67.80
2022-09-02T11:33:11.198Z,68.50
2022-09-02T11:35:39.766Z,67.00
2022-09-02T11:38:21.716Z,67.80
2022-09-02T11:44:02.179Z,66.20
2022-09-02T11:46:52.522Z,68.90
2022-09-02T11:50:11.805Z,70.50
2022-09-02T11:53:02.736Z,67.60
2022-09-02T11:55:37.885Z,66.90
2022-09-02T11:58:06.584Z,71.90
2022-09-02T12:00:58.496Z,72.10
2022-09-02T12:03:46.615Z,65.20
2022-09-02T12:06:19.603Z,64.80
2022-09-02T12:08:47.203Z,64.90
2022-09-02T12:11:42.313Z,64.80
2022-09-02T12:14:29.155Z,65.10
2022-09-02T12:17:08.262Z,65.40
2022-09-02T12:19:40.008Z,65.30
2022-09-02T12:22:16.094Z,64.00
2022-09-02T12:25:03.085Z,62.50
2022-09-02T12:27:37.291Z,61.90
2022-09-02T12:30:11.658Z,63.00
2022-09-02T12:32:49.456Z,64.90
2022-09-02T12:35:34.949Z,65.90
2022-09-02T12:38:10.254Z,66.40
2022-09-02T12:40:53.857Z,66.10
2022-09-02T12:43:32.564Z,64.50
2022-09-02T12:46:14.738Z,63.70
2022-09-02T12:48:49.491Z,66.40
2022-09-02T12:51:54.210Z,70.10
2022-09-02T12:54:56.976Z,70.70
2022-09-02T12:57:43.287Z,69.90
2022-09-02T13:00:16.370Z,70.40
2022-09-02T13:02:52.044Z,71.00
2022-09-02T13:05:41.073Z,70.70
2022-09-02T13:08:49.001Z,71.30
2022-09-02T13:11:37.185Z,67.10
2022-09-02T13:14:35.667Z,67.20
2022-09-02T13:17:48.119Z,67.50
2022-09-02T13:20:33.935Z,67.90
2022-09-02T13:23:19.784Z,67.30
2022-09-02T13:26:27.430Z,67.10
2022-09-02T13:29:36.320Z,66.50
2022-09-02T13:32:22.263Z,66.20
2022-09-02T13:34:51.619Z,66.80
2022-09-02T13:37:38.162Z,66.30
2022-09-02T13:40:18.220Z,66.50
2022-09-02T13:42:54.066Z,66.20
2022-09-02T13:45:23.823Z,65.20
2022-09-02T13:47:57.107Z,65.10
2022-09-02T13:50:27.971Z,65.80
2022-09-02T13:55:57.819Z,65.90
2022-09-02T13:58:31.059Z,66.20
2022-09-02T14:01:16.959Z,66.60
2022-09-02T14:03:52.929Z,66.80
2022-09-02T14:06:24.343Z,66.60
2022-09-02T14:08:54.540Z,66.90
2022-09-02T14:11:21.955Z,66.40
2022-09-02T14:13:50.438Z,65.40
2022-09-02T14:16:34.096Z,65.10
2022-09-02T14:19:07.935Z,63.50
2022-09-02T14:21:36.498Z,63.90
2022-09-02T14:24:04.509Z,62.60
2022-09-02T14:26:38.286Z,63.00
2022-09-02T14:29:12.685Z,63.40
2022-09-02T14:31:39.820Z,64.10
2022-09-02T14:34:37.131Z,64.60
2022-09-02T14:37:22.509Z,64.30
2022-09-02T14:40:11.740Z,64.40
2022-09-02T14:42:48.036Z,64.60
2022-09-02T14:45:24.547Z,64.20
2022-09-02T14:47:51.739Z,64.10
2022-09-02T14:50:22.259Z,63.80
2022-09-02T14:52:52.204Z,63.80
2022-09-02T14:55:55.404Z,64.10
2022-09-02T14:58:26.802Z,64.00
2022-09-02T15:00:57.551Z,64.50
2022-09-02T15:03:24.882Z,64.80
2022-09-02T15:05:52.471Z,65.30
2022-09-02T15:08:20.145Z,66.00
2022-09-02T15:10:47.444Z,66.50
2022-09-02T15:13:34.163Z,66.60
2022-09-02T15:16:02.842Z,66.90
2022-09-02T15:18:30.266Z,66.70
2022-09-02T15:20:57.800Z,66.80
2022-09-02T15:23:25.160Z,66.50
2022-09-02T15:25:54.340Z,66.90
2022-09-02T15:28:21.297Z,67.80
2022-09-02T15:30:48.344Z,69.60
2022-09-02T15:33:17.586Z,70.80
2022-09-02T15:35:47.253Z,71.70
2022-09-02T15:38:14.305Z,71.50
2022-09-02T15:40:41.427Z,70.00
2022-09-02T15:43:08.353Z,69.50
2022-09-02T15:45:37.196Z,68.90
2022-09-02T15:48:06.172Z,69.10
2022-09-02T15:50:34.333Z,69.30
2022-09-02T15:53:02.391Z,69.70
2022-09-02T15:55:33.233Z,69.70
2022-09-02T15:58:00.779Z,69.60
2022-09-02T16:00:28.668Z,70.00
2022-09-02T16:02:57.276Z,69.90
2022-09-02T16:05:24.487Z,69.80
2022-09-02T16:07:53.822Z,69.50
2022-09-02T16:10:20.792Z,70.30
2022-09-02T16:12:48.636Z,71.40
2022-09-02T16:15:15.663Z,72.70
2022-09-02T16:17:42.592Z,74.80
2022-09-02T16:20:09.811Z,75.50
2022-09-02T16:22:37.470Z,75.90
2022-09-02T16:25:04.649Z,76.20
2022-09-02T16:27:49.924Z,76.70
2022-09-02T16:30:16.889Z,76.70
2022-09-02T16:32:44.605Z,76.90
2022-09-02T16:35:11.503Z,78.00
2022-09-02T16:37:38.482Z,79.20
2022-09-02T16:40:06.260Z,80.40
2022-09-02T16:42:37.424Z,81.10
2022-09-02T16:45:06.705Z,82.10
2022-09-02T16:47:34.367Z,82.70
2022-09-02T16:50:01.259Z,83.40
2022-09-02T16:52:28.255Z,84.00
2022-09-02T16:54:55.125Z,84.70
2022-09-02T16:57:22.044Z,85.10
2022-09-02T16:59:49.652Z,85.20
2022-09-02T17:02:16.663Z,85.20
2022-09-02T17:04:43.748Z,85.10
2022-09-02T17:07:10.677Z,85.50
2022-09-02T17:09:37.931Z,85.40
2022-09-02T17:12:05.023Z,85.40
2022-09-02T17:14:31.997Z,86.00
2022-09-02T17:16:59.026Z,86.60
2022-09-02T17:19:31.367Z,86.80
2022-09-02T17:21:59.231Z,87.00
2022-09-02T17:24:31.724Z,87.40
2022-09-02T17:27:00.619Z,87.90
2022-09-02T17:32:17.931Z,88.20
2022-09-02T17:34:44.923Z,88.40
2022-09-02T17:37:12.001Z,88.30
2022-09-02T17:39:38.987Z,88.20
2022-09-02T17:42:06.588Z,88.10
2022-09-02T17:44:38.449Z,88.20
2022-09-02T17:47:14.436Z,88.40
2022-09-02T17:49:44.925Z,88.50
2022-09-02T17:52:18.648Z,88.30
2022-09-02T17:54:48.913Z,88.50
2022-09-02T17:57:42.476Z,89.20
2022-09-02T18:00:12.213Z,90.00
2022-09-02T18:02:55.825Z,90.20
2022-09-02T18:05:39.312Z,90.40
2022-09-02T18:08:14.462Z,90.40
2022-09-02T18:10:58.048Z,90.60
2022-09-02T18:13:40.158Z,90.90
2022-09-02T18:16:29.569Z,90.50
2022-09-02T18:19:19.666Z,90.50
2022-09-02T18:22:02.203Z,90.70
2022-09-02T18:24:40.945Z,90.80
2022-09-02T18:27:25.633Z,90.20
2022-09-02T18:30:26.298Z,90.00
2022-09-02T18:33:20.630Z,89.80
2022-09-02T18:36:22.647Z,88.50
2022-09-02T18:39:06.352Z,87.90
2022-09-02T18:41:58.774Z,87.70
2022-09-02T18:44:48.062Z,87.90
2022-09-02T18:47:23.565Z,89.30
2022-09-02T18:49:54.165Z,89.50
2022-09-02T18:52:29.693Z,89.60
2022-09-02T18:55:17.146Z,89.70
2022-09-02T18:58:00.664Z,89.60
2022-09-02T19:00:44.669Z,89.70
2022-09-02T19:03:11.841Z,89.70
2022-09-02T19:05:38.771Z,89.50
2022-09-02T19:08:34.166Z,89.40
2022-09-02T19:11:10.883Z,89.30
2022-09-02T19:13:53.074Z,89.00
2022-09-02T19:16:34.461Z,88.90
2022-09-02T19:19:01.444Z,88.80
2022-09-02T19:21:42.126Z,88.60
2022-09-02T19:24:13.048Z,88.50
2022-09-02T19:26:41.599Z,88.40
2022-09-02T19:29:10.649Z,88.40
2022-09-02T19:31:39.867Z,88.60
2022-09-02T19:34:08.381Z,89.40
2022-09-02T19:36:40.708Z,90.00
2022-09-02T19:39:08.360Z,90.30
2022-09-02T19:41:35.276Z,90.80
2022-09-02T19:44:02.257Z,90.90
2022-09-02T19:47:20.681Z,91.60
2022-09-02T19:49:16.866Z,91.50
2022-09-02T19:51:44.325Z,91.80
2022-09-02T19:54:14.108Z,92.10
2022-09-02T19:56:41.804Z,92.20
2022-09-02T19:59:09.168Z,92.30
2022-09-02T20:01:36.571Z,92.50
2022-09-02T20:04:06.329Z,92.10
2022-09-02T20:06:33.356Z,92.00
2022-09-02T20:09:00.275Z,91.90
2022-09-02T20:11:28.002Z,91.90
2022-09-02T20:13:56.244Z,91.80
2022-09-02T20:16:26.589Z,91.70
2022-09-02T20:18:54.353Z,91.70
2022-09-02T20:21:31.505Z,91.70
2022-09-02T20:24:09.595Z,91.70
2022-09-02T20:26:39.513Z,91.60
2022-09-02T20:29:18.828Z,91.60
2022-09-02T20:31:52.641Z,91.60
2022-09-02T20:34:43.347Z,91.60
2022-09-02T20:37:38.674Z,91.60
2022-09-02T20:40:17.635Z,91.90
2022-09-02T20:43:06.529Z,92.00
2022-09-02T20:46:12.260Z,92.40
2022-09-02T20:49:04.837Z,92.40
2022-09-02T20:51:40.987Z,92.50
2022-09-02T20:54:08.273Z,92.60
2022-09-02T20:57:04.445Z,92.70
2022-09-02T20:59:58.808Z,92.80
2022-09-02T21:02:51.579Z,92.90
2022-09-02T21:05:41.471Z,93.00
2022-09-02T21:08:35.454Z,93.20
2022-09-02T21:11:14.752Z,93.20
2022-09-02T21:14:00.613Z,93.20
2022-09-02T21:16:36.125Z,93.40
2022-09-02T21:19:30.782Z,93.50
2022-09-02T21:22:04.100Z,93.60
2022-09-02T21:24:40.509Z,93.60
2022-09-02T21:27:19.054Z,93.70
2022-09-02T21:30:02.562Z,93.80
2022-09-02T21:32:51.522Z,93.90
2022-09-02T21:35:23.736Z,94.10
2022-09-02T21:37:58.152Z,94.20
2022-09-02T21:40:31.988Z,94.80
2022-09-02T21:43:16.937Z,95.00
2022-09-02T21:45:54.004Z,95.50
2022-09-02T21:48:39.596Z,95.90
2022-09-02T21:51:36.143Z,96.20
2022-09-02T21:54:11.358Z,96.70
2022-09-02T21:57:09.076Z,97.10
2022-09-02T21:59:44.824Z,97.40
2022-09-02T22:02:31.975Z,98.20
2022-09-02T22:05:30.864Z,99.00
2022-09-02T22:08:12.866Z,99.30
2022-09-02T22:11:04.207Z,99.60
2022-09-02T22:13:32.096Z,99.90
2022-09-02T22:16:22.440Z,99.90
2022-09-02T22:19:00.448Z,99.90
2022-09-02T22:21:50.824Z,99.90
2022-09-02T22:24:20.295Z,99.90
2022-09-02T22:26:52.524Z,99.90
2022-09-02T22:29:22.712Z,99.90
2022-09-02T22:31:55.211Z,99.90
2022-09-02T22:34:23.812Z,99.90
2022-09-02T22:37:12.140Z,99.90
2022-09-02T22:39:54.014Z,99.90
2022-09-02T22:42:37.973Z,99.90
2022-09-02T22:45:32.960Z,99.90
2022-09-02T22:48:23.982Z,99.90
2022-09-02T22:51:19.177Z,99.90
2022-09-02T22:53:48.093Z,99.90
2022-09-02T22:56:26.299Z,99.90
2022-09-02T22:59:08.419Z,99.90
2022-09-02T23:01:54.024Z,99.90
2022-09-02T23:05:06.090Z,99.90
2022-09-02T23:07:33.086Z,99.90
2022-09-02T23:10:00.973Z,99.90
2022-09-02T23:12:38.756Z,99.90
2022-09-02T23:15:44.453Z,99.90
2022-09-02T23:18:37.120Z,99.90
2022-09-02T23:21:26.203Z,99.90
2022-09-02T23:24:18.353Z,99.90
2022-09-02T23:26:54.557Z,99.90
2022-09-02T23:29:26.675Z,99.90
2022-09-02T23:31:54.181Z,99.90
2022-09-02T23:34:51.718Z,99.90
2022-09-02T23:37:49.572Z,99.90
2022-09-02T23:40:35.179Z,99.90
2022-09-02T23:43:02.083Z,99.90
2022-09-02T23:45:32.163Z,99.90
2022-09-02T23:48:04.795Z,99.90
2022-09-02T23:50:57.697Z,99.90
2022-09-02T23:53:32.704Z,99.90
2022-09-02T23:56:05.518Z,99.90
2022-09-02T23:58:47.876Z,99.90
